Bezig met laden...

Meteo / TAF / Notam

België
  • EBAW - ANTWERPEN / DEURNE
    EBAW 151450Z 14012KT 9999 SCT033 01/M05 Q1019 NOSIG
    TAF EBAW 151400Z 1515/1524 14010KT 9999 SCT040 BECMG 1520/1522 3500 -SN BKN008 PROB40 TEMPO 1522/1524 16016G28KT 1200 SN BKN002
  • EBBE - BEAUVECHAIN
    EBBE 151455Z AUTO 13006KT 9999 BKN240/// 00/M05 Q1019 BLU
  • EBBL - KLEINE-BROGEL
    EBBL 151455Z AUTO 10003KT 9999 NCD M00/M06 Q1020 BLU
  • EBBR - BRUSSELS / BRUSSELS-NATIONAL
    EBBR 151450Z 15011KT 9999 FEW032 01/M05 Q1019 NOSIG
    TAF EBBR 151100Z 1512/1618 14010KT 9999 BKN040 BECMG 1519/1521 3500 -SN BKN008 PROB40 TEMPO 1521/1524 16016G28KT 1200 SN BKN002 PROB30 TEMPO 1523/1601 -FZRA BECMG 1600/1602 20010KT 6000 NSW PROB40 1604/1608 0500 FG BKN001 PROB30 TEMPO 1608/1610 4000 SHRA
  • EBCI - CHARLEROI / BRUSSELS SOUTH
    EBCI 151450Z 15012KT 110V170 9999 FEW028 M01/M06 Q1018 NOSIG
    TAF EBCI 151100Z 1512/1618 14010KT 9999 BKN040 BECMG 1518/1520 3500 -SN BKN008 TEMPO 1520/1524 16016G28KT 1200 SN BKN001 PROB40 TEMPO 1523/1601 -FZRA BECMG 1600/1602 20010KT 6000 NSW PROB40 1603/1609 0500 FG BKN001 PROB30 TEMPO 1609/1611 4000 SHRA BKN004
  • EBCV - CHIÈVRES
    EBCV 151455Z AUTO 15010KT 9999 BKN220/// 00/M05 Q1019 BLU
    TAF EBCV 151141Z 1513/1522 15010KT 9999 SCT030 SCT120 BECMG 1514/1516 SCT025 SCT090 BECMG 1517/1519 15017G27KT SCT020 BKN040 BECMG 1518/1520 3000 -SN / SNRA SCT008 BKN012 PROB30 TEMPO 1520/1522 4000 FZRA SCT008 BKN012 BY EBWM
  • EBDT - DIEST / SCHAFFEN
    EBDT 151455Z AUTO 14008KT 9999 NCD 00/M05 Q1020 BLU
  • EBFN - KOKSIJDE
    EBFN 151455Z AUTO 14016KT 7000 OVC089/// 01/M04 Q1016 WHT
    TAF EBFN 151141Z 1513/1522 16008KT 9999 SCT030 BKN200 BECMG 1513/1515 16016KT 9999 SCT030 BKN060 PROB30 TEMPO 1515/1522 3000 -SNRA SCT010 BKN030 BECMG 1516/1518 15020G30KT FEW012 SCT020 BKN030 TEMPO 1517/1522 5000 RA SCT010 BKN030 PROB40 TEMPO 1517/1522 4
  • EBFS - FLORENNES
    EBFS 151455Z AUTO 14014KT 9999 NCD M02/M06 Q1018 BLU
  • EBLB - ELSENBORN
    EBLB 151455Z AUTO 15004KT 9999 NCD M04/M07 Q1018 BLU
  • EBLG - LIÈGE / LIÈGE
    EBLG 151450Z 15007KT 9999 SCT030 M00/M06 Q1019 NOSIG
    TAF EBLG 151100Z 1512/1618 14010KT 9999 BKN040 BECMG 1521/1523 3500 -SN BKN008 TEMPO 1523/1601 16016G28KT 1200 SN BKN002 PROB40 TEMPO 1601/1603 -FZRA BECMG 1602/1604 20010KT 6000 NSW PROB40 1604/1610 0500 FG BKN001 PROB30 TEMPO 1610/1612 4000 SHRA BKN014T
  • EBOS - OOSTENDE-BRUGGE / OOSTENDE
    EBOS 151450Z 14017KT CAVOK 00/M05 Q1017 TEMPO 15018G28KT
    TAF EBOS 151100Z 1512/1618 14015KT 9999 BKN040 BECMG 1517/1519 3500 -SN BKN008 PROB40 TEMPO 1519/1523 16018G30KT 1200 SN BKN002 PROB30 TEMPO 1521/1524 -FZRA BECMG 1600/1602 20010KT 6000 NSW PROB40 1602/1606 0500 FG BKN001 PROB30 TEMPO 1606/1608 4000 SHRA
Nederland
  • EHAK - A12-CPP HELIPAD OIL 2011
    EHAK 151455Z AUTO 14040KT 9999 SCT022/// OVC025/// 04/M01 Q1017 W///H///
  • EHAM - AMSTERDAM AIRPORT SCHIPHOL
    EHAM 151455Z 14017KT 9999 OVC030 01/M05 Q1020 NOSIG
    TAF EHAM 151049Z 1512/1618 14013KT 9999 SCT035 BECMG 1517/1520 13016G26KT BECMG 1522/1524 4000 -SN BKN015 PROB40 TEMPO 1523/1603 1000 SN VV005 BECMG 1603/1606 16010KT BR -DZ OVC004 PROB40 1609/1618 1500 OVC002
  • EHBK - MAASTRICHT AACHEN AIRPORT
    EHBK 151455Z AUTO 14008KT 9999 NSC M00/M06 Q1020 NOSIG
    TAF EHBK 151118Z 1512/1618 14008KT 9999 BKN030 BECMG 1600/1603 20010KT 5000 -SN SCT015 BKN020 PROB40 TEMPO 1600/1604 0800 SN BKN004 BECMG 1605/1608 8000 NSW BKN008 PROB30 TEMPO 1606/1608 4500 -FZDZ BR BKN004 BECMG 1612/1615 8000 NSC PROB30 1615/1618 5000
  • EHDL - DEELEN AIR BASE
    EHDL 151455Z AUTO 14012KT 070V200 9999 OVC026 01/M05 Q1021 BLU
  • EHDV - D15-FA-1 SEA
    EHDV 151455Z AUTO 16037KT 9999 SCT020/// OVC024/// 03/M03 Q1015 W///H///
  • EHEH - EINDHOVEN AIRPORT
    EHEH 151455Z AUTO 13008KT 100V170 9999 OVC031 01/M05 Q1020 BLU 15012KT 9999 FEW030 BKN250
    TAF EHEH 151135Z 1512/1618 14005KT 9999 BKN030 BECMG 1515/1518 14011G21KT BECMG 1523/1601 4000 -SN -SNRA BKN010 PROB40 TEMPO 1600/1605 1500 SN VV005 BECMG 1604/1607 21007KT 4000 -DZRA BR OVC005 PROB30 TEMPO 1604/1607 3000 FZDZ
  • EHFD - F-3 PLATFORM
    EHFD 151455Z AUTO 14033KT 9999 BKN020/// OVC024/// 03/M02 Q1018 W///H///
  • EHFS - VLISSINGEN
    EHFS 151455Z AUTO 15021KT 9999 NSC 02/M02 Q1017 W///H///
  • EHFZ - F16-A SEA
    EHFZ 151455Z AUTO 15034G45KT 9999 BKN022 OVC026 02/M03 Q1017 W///H///
  • EHGG - GRONINGEN AIRPORT EELDE
    EHGG 151455Z AUTO 13009KT 080V190 9999 OVC028 01/M05 Q1023 NOSIG
    TAF EHGG 151118Z 1512/1618 13010KT 9999 BKN030 BECMG 1518/1521 13015G25KT BECMG 1602/1605 5000 -SN SCT015 BKN020 TEMPO 1605/1609 0800 SN BKN004 BECMG 1608/1611 15010KT 4000 DZ BR BKN008 PROB40 TEMPO 1610/1614 -FZDZ PROB40 TEMPO 1614/1618 2500 BR BKN004
  • EHGR - GILZE-RIJEN AIR BASE
    EHGR 151455Z AUTO 14010KT 9999 BKN030 00/M05 Q1020 BLU
  • EHJA - J6-A SEA, NETHERLANDS
    EHJA 151455Z AUTO 13032KT 080V150 9999 BKN021/// OVC025/// 03/M03 Q1016 W///H///
  • EHJR - K13-A PLATFORM
    EHJR 151455Z AUTO 15031KT //// // ///////// 03/M02 Q1016 RE// W///H23
  • EHKD - DEN HELDER AIRPORT
    EHKD 151455Z AUTO 14014KT 120V180 9999 OVC027 01/M05 Q1020 BLU 16015KT 9999 BKN028
    TAF EHKD 151329Z 1514/1602 15012KT 9999 BKN030 BECMG 1516/1519 14018G30KT BECMG 1600/1602 3000 -SG SCT006 OVC015 TEMPO 1600/1602 1500 SN
  • EHKV - K14-FA-1C PLATFORM
    EHKV 151455Z AUTO 14029KT 9999 BKN023 OVC027 02/M03 Q1017 W///H///
  • EHLW - LEEUWARDEN AIR BASE
    EHLW 151455Z AUTO 14013KT 090V180 9999 OVC025 01/M04 Q1021 BLU
  • EHMA - AWG-1 PLATFORM
    EHMA 151455Z AUTO 13025KT //// // OVC025 01/M04 Q1021 RE// W///H///
  • EHMG - L9-FF-1 PLATFORM
    EHMG 151455Z AUTO 15029KT 9999 OVC025 01/M04 Q1020 W///H///
  • EHPG - P11-B SEA, NETHERLANDS
    EHPG 151455Z AUTO 12033KT 060V150 9999 BKN023 BKN026 02/M03 Q1016 W///H///
  • EHQE - HOORN-A SEA, NETHERLANDS
    EHQE 151455Z AUTO 15028KT 9999 BKN025 OVC028 01/M05 Q1018 W///H///
  • EHRD - ROTTERDAM THE HAGUE AIRPORT
    EHRD 151455Z AUTO 14016G26KT 110V170 9999 OVC029 00/M06 Q1019 NOSIG
    TAF EHRD 151049Z 1512/1618 14013KT 9999 SCT035 BECMG 1517/1520 13016G26KT BECMG 1521/1523 4000 -SN BKN015 PROB40 TEMPO 1522/1602 1000 SN VV005 BECMG 1602/1605 16010KT BR -DZ OVC004 PROB40 1608/1618 1500 OVC002
  • EHSA - EURO PLATFORM
    EHSA 151455Z AUTO 13029KT 9999 ///////// 02/M04 Q1016 W07/H17
  • EHSC - LICHTEILAND GOEREE
    EHSC 151455Z AUTO 15029KT 9999 ///////// 02/M04 Q1018 W08/H12
  • EHVK - VOLKEL AIR BASE
    EHVK 151455Z AUTO 15011KT 120V180 9999 OVC029 01/M05 Q1021 BLU
    TAF EHVK 151333Z 1514/1602 14010KT 9999 BKN030 BECMG 1515/1518 14011G21KT BECMG 1600/1602 3000 -SG BKN010 OVC020 TEMPO 1601/1602 1500 SN SCT005 OVC010
  • EHVL - VLIELAND HELIPORT
    EHVL 151455Z AUTO 14026KT 9999 OVC024 01/M04 Q1020 WHT
  • EHWO - WOENSDRECHT AIR BASE
    EHWO 151455Z AUTO 13006KT 080V170 9999 OVC230 00/M06 Q1019 BLU
Luxemburg
  • ELLX - LUXEMBOURG FINDEL AIRPORT
    ELLX 151450Z 13007KT 090V150 9999 FEW022 M02/M06 Q1020 NOSIG
    TAF ELLX 151100Z 1512/1618 14008KT 9999 BKN022 BECMG 1522/1524 3000 -SN BKN004 PROB40 TEMPO 1604/1609 -FZDZ -SG BECMG 1603/1605 6000 NSW BKN006 BECMG 1616/1618 3000 BR BKN004

Buienradar



Weerbericht - Voorspelling